sensor_id;sensor_type;location;lat;lon;timestamp;pressure;altitude;pressure_sealevel;temperature;humidity
52983;BME280;48698;45.736;13.926;2023-04-07T00:03:18;97630.72;;;0.36;100.00
52983;BME280;48698;45.736;13.926;2023-04-07T00:08:21;97328.28;;;-1.46;100.00
52983;BME280;48698;45.736;13.926;2023-04-07T00:13:24;97553.03;;;-0.24;100.00
52983;BME280;48698;45.736;13.926;2023-04-07T00:18:28;97578.63;;;-0.64;100.00
52983;BME280;48698;45.736;13.926;2023-04-07T00:23:36;97667.38;;;0.27;100.00
52983;BME280;48698;45.736;13.926;2023-04-07T00:28:39;97548.19;;;-0.65;100.00
52983;BME280;48698;45.736;13.926;2023-04-07T00:33:41;97462.63;;;-1.18;100.00
52983;BME280;48698;45.736;13.926;2023-04-07T00:38:44;97483.38;;;-1.03;100.00
52983;BME280;48698;45.736;13.926;2023-04-07T00:43:51;97554.03;;;-0.37;100.00
52983;BME280;48698;45.736;13.926;2023-04-07T00:49:05;97470.34;;;-1.05;100.00
52983;BME280;48698;45.736;13.926;2023-04-07T00:54:11;97535.13;;;-0.61;100.00
52983;BME280;48698;45.736;13.926;2023-04-07T00:59:24;97588.69;;;-0.22;100.00
52983;BME280;48698;45.736;13.926;2023-04-07T01:04:32;97656.09;;;0.25;100.00
52983;BME280;48698;45.736;13.926;2023-04-07T01:09:41;97633.59;;;0.12;100.00
52983;BME280;48698;45.736;13.926;2023-04-07T01:15:01;97632.72;;;0.13;100.00
52983;BME280;48698;45.736;13.926;2023-04-07T01:20:06;97510.06;;;-0.77;100.00
52983;BME280;48698;45.736;13.926;2023-04-07T01:25:21;97630.47;;;-0.26;100.00
52983;BME280;48698;45.736;13.926;2023-04-07T01:30:38;97605.44;;;-0.47;100.00
52983;BME280;48698;45.736;13.926;2023-04-07T01:36:04;97631.28;;;-0.17;100.00
52983;BME280;48698;45.736;13.926;2023-04-07T01:41:08;97452.34;;;-1.35;100.00
52983;BME280;48698;45.736;13.926;2023-04-07T01:46:14;97470.28;;;-0.97;100.00
52983;BME280;48698;45.736;13.926;2023-04-07T01:51:16;97539.84;;;-1.05;100.00
52983;BME280;48698;45.736;13.926;2023-04-07T01:56:21;97357.50;;;-2.28;100.00
52983;BME280;48698;45.736;13.926;2023-04-07T02:01:24;97600.03;;;-1.55;100.00
52983;BME280;48698;45.736;13.926;2023-04-07T02:06:32;97569.38;;;-1.03;100.00
52983;BME280;48698;45.736;13.926;2023-04-07T02:11:37;97537.41;;;-1.29;100.00
52983;BME280;48698;45.736;13.926;2023-04-07T02:16:42;97534.06;;;-1.56;100.00
52983;BME280;48698;45.736;13.926;2023-04-07T02:21:50;97450.88;;;-1.74;100.00
52983;BME280;48698;45.736;13.926;2023-04-07T02:26:53;97272.06;;;-2.96;100.00
52983;BME280;48698;45.736;13.926;2023-04-07T02:31:57;97342.00;;;-2.43;100.00
52983;BME280;48698;45.736;13.926;2023-04-07T02:37:07;97484.47;;;-1.33;100.00
52983;BME280;48698;45.736;13.926;2023-04-07T02:42:10;97292.69;;;-2.58;100.00
52983;BME280;48698;45.736;13.926;2023-04-07T02:47:13;97374.00;;;-2.26;100.00
52983;BME280;48698;45.736;13.926;2023-04-07T02:52:25;97602.16;;;-0.70;100.00
52983;BME280;48698;45.736;13.926;2023-04-07T02:57:29;97453.66;;;-2.07;100.00
52983;BME280;48698;45.736;13.926;2023-04-07T03:02:33;97258.28;;;-3.17;100.00
52983;BME280;48698;45.736;13.926;2023-04-07T03:07:36;97419.94;;;-2.27;100.00
52983;BME280;48698;45.736;13.926;2023-04-07T03:12:39;97290.19;;;-2.80;100.00
52983;BME280;48698;45.736;13.926;2023-04-07T03:17:42;97401.94;;;-2.83;100.00
52983;BME280;48698;45.736;13.926;2023-04-07T03:22:46;97560.22;;;-1.74;100.00
52983;BME280;48698;45.736;13.926;2023-04-07T03:27:49;97477.97;;;-2.11;100.00
52983;BME280;48698;45.736;13.926;2023-04-07T03:32:53;97560.88;;;-1.34;100.00
52983;BME280;48698;45.736;13.926;2023-04-07T03:37:55;97592.09;;;-1.26;100.00
52983;BME280;48698;45.736;13.926;2023-04-07T03:42:58;97598.06;;;-1.09;100.00
52983;BME280;48698;45.736;13.926;2023-04-07T03:48:02;97583.38;;;-1.16;100.00
52983;BME280;48698;45.736;13.926;2023-04-07T03:53:05;97318.88;;;-3.02;100.00
52983;BME280;48698;45.736;13.926;2023-04-07T03:58:08;97522.81;;;-1.56;100.00
52983;BME280;48698;45.736;13.926;2023-04-07T04:03:22;97441.44;;;-1.90;100.00
52983;BME280;48698;45.736;13.926;2023-04-07T04:08:25;97577.41;;;-1.42;100.00
52983;BME280;48698;45.736;13.926;2023-04-07T04:13:28;97507.22;;;-1.65;100.00
52983;BME280;48698;45.736;13.926;2023-04-07T04:18:31;97599.03;;;-1.28;100.00
52983;BME280;48698;45.736;13.926;2023-04-07T04:23:34;97568.94;;;-1.79;100.00
52983;BME280;48698;45.736;13.926;2023-04-07T04:28:37;97464.25;;;-2.54;100.00
52983;BME280;48698;45.736;13.926;2023-04-07T04:33:40;97484.84;;;-2.01;100.00
52983;BME280;48698;45.736;13.926;2023-04-07T04:38:43;97391.47;;;-2.62;100.00
52983;BME280;48698;45.736;13.926;2023-04-07T04:43:46;97524.72;;;-1.90;100.00
52983;BME280;48698;45.736;13.926;2023-04-07T04:48:49;97294.78;;;-3.97;100.00
52983;BME280;48698;45.736;13.926;2023-04-07T04:53:54;97391.50;;;-2.71;100.00
52983;BME280;48698;45.736;13.926;2023-04-07T04:58:57;97298.97;;;-3.05;100.00
52983;BME280;48698;45.736;13.926;2023-04-07T05:04:00;97251.34;;;-3.08;100.00
52983;BME280;48698;45.736;13.926;2023-04-07T05:09:04;97583.41;;;-1.27;100.00
52983;BME280;48698;45.736;13.926;2023-04-07T05:14:07;97324.72;;;-2.56;100.00
52983;BME280;48698;45.736;13.926;2023-04-07T05:19:10;97566.91;;;-1.27;100.00
52983;BME280;48698;45.736;13.926;2023-04-07T05:24:13;97557.94;;;-0.84;100.00
52983;BME280;48698;45.736;13.926;2023-04-07T05:29:16;97607.28;;;-0.57;100.00
52983;BME280;48698;45.736;13.926;2023-04-07T05:34:19;97430.66;;;-1.38;100.00
52983;BME280;48698;45.736;13.926;2023-04-07T05:39:22;97315.75;;;-2.05;100.00
52983;BME280;48698;45.736;13.926;2023-04-07T05:44:25;97585.22;;;-0.24;100.00
52983;BME280;48698;45.736;13.926;2023-04-07T05:49:28;97558.19;;;-0.17;100.00
52983;BME280;48698;45.736;13.926;2023-04-07T05:54:31;97559.69;;;0.06;100.00
52983;BME280;48698;45.736;13.926;2023-04-07T05:59:34;97417.94;;;-0.79;100.00
52983;BME280;48698;45.736;13.926;2023-04-07T06:04:38;97485.63;;;0.11;100.00
52983;BME280;48698;45.736;13.926;2023-04-07T06:09:41;97409.34;;;-0.12;100.00
52983;BME280;48698;45.736;13.926;2023-04-07T06:14:50;97353.84;;;-0.26;100.00
52983;BME280;48698;45.736;13.926;2023-04-07T06:19:52;97367.97;;;0.22;100.00
52983;BME280;48698;45.736;13.926;2023-04-07T06:24:55;97596.88;;;2.00;100.00
52983;BME280;48698;45.736;13.926;2023-04-07T06:29:58;97567.94;;;2.07;100.00
52983;BME280;48698;45.736;13.926;2023-04-07T06:35:02;97603.31;;;2.73;100.00
52983;BME280;48698;45.736;13.926;2023-04-07T06:40:06;97558.19;;;2.58;100.00
52983;BME280;48698;45.736;13.926;2023-04-07T06:45:09;97519.38;;;2.74;100.00
52983;BME280;48698;45.736;13.926;2023-04-07T06:50:12;97402.16;;;2.41;100.00
52983;BME280;48698;45.736;13.926;2023-04-07T06:55:15;97563.53;;;3.66;100.00
52983;BME280;48698;45.736;13.926;2023-04-07T07:00:22;97377.97;;;3.00;100.00
52983;BME280;48698;45.736;13.926;2023-04-07T07:05:25;97453.53;;;3.88;100.00
52983;BME280;48698;45.736;13.926;2023-04-07T07:10:38;97475.00;;;4.62;100.00
52983;BME280;48698;45.736;13.926;2023-04-07T07:15:41;97417.22;;;4.87;100.00
52983;BME280;48698;45.736;13.926;2023-04-07T07:20:44;97584.97;;;6.65;100.00
52983;BME280;48698;45.736;13.926;2023-04-07T07:25:47;97531.53;;;7.05;100.00
52983;BME280;48698;45.736;13.926;2023-04-07T07:30:50;97561.34;;;7.52;100.00
52983;BME280;48698;45.736;13.926;2023-04-07T07:36:03;97422.28;;;7.08;100.00
52983;BME280;48698;45.736;13.926;2023-04-07T07:41:06;97531.81;;;8.05;100.00
52983;BME280;48698;45.736;13.926;2023-04-07T07:46:09;97340.38;;;6.88;100.00
52983;BME280;48698;45.736;13.926;2023-04-07T07:51:12;97573.09;;;8.69;100.00
52983;BME280;48698;45.736;13.926;2023-04-07T07:56:16;97460.16;;;8.31;100.00
52983;BME280;48698;45.736;13.926;2023-04-07T08:01:19;97346.47;;;7.91;100.00
52983;BME280;48698;45.736;13.926;2023-04-07T08:06:22;97560.75;;;9.80;100.00
52983;BME280;48698;45.736;13.926;2023-04-07T08:11:26;97385.63;;;8.77;100.00
52983;BME280;48698;45.736;13.926;2023-04-07T08:16:28;97272.63;;;8.23;100.00
52983;BME280;48698;45.736;13.926;2023-04-07T08:21:31;97475.53;;;9.52;100.00
52983;BME280;48698;45.736;13.926;2023-04-07T08:26:34;97566.25;;;10.63;100.00
52983;BME280;48698;45.736;13.926;2023-04-07T08:31:37;97400.03;;;10.11;100.00
52983;BME280;48698;45.736;13.926;2023-04-07T08:36:50;97447.66;;;10.14;100.00
52983;BME280;48698;45.736;13.926;2023-04-07T08:41:54;97465.25;;;10.80;100.00
52983;BME280;48698;45.736;13.926;2023-04-07T08:46:58;97463.28;;;10.84;97.14
52983;BME280;48698;45.736;13.926;2023-04-07T08:52:05;97553.44;;;11.20;95.45
52983;BME280;48698;45.736;13.926;2023-04-07T08:57:13;97394.41;;;11.42;94.09
52983;BME280;48698;45.736;13.926;2023-04-07T09:02:17;97464.38;;;11.74;89.65
52983;BME280;48698;45.736;13.926;2023-04-07T09:07:20;97313.63;;;10.69;94.13
52983;BME280;48698;45.736;13.926;2023-04-07T09:12:23;97477.16;;;12.27;89.47
52983;BME280;48698;45.736;13.926;2023-04-07T09:17:27;97281.34;;;10.91;83.57
52983;BME280;48698;45.736;13.926;2023-04-07T09:22:35;97517.31;;;13.78;83.27
52983;BME280;48698;45.736;13.926;2023-04-07T09:27:38;97533.34;;;13.37;82.90
52983;BME280;48698;45.736;13.926;2023-04-07T09:32:41;97467.06;;;13.31;82.72
52983;BME280;48698;45.736;13.926;2023-04-07T09:38:00;97387.31;;;13.14;76.16
52983;BME280;48698;45.736;13.926;2023-04-07T09:43:14;97482.34;;;14.72;78.63
52983;BME280;48698;45.736;13.926;2023-04-07T09:48:19;97500.34;;;13.52;80.46
52983;BME280;48698;45.736;13.926;2023-04-07T09:53:46;97506.84;;;14.54;79.26
52983;BME280;48698;45.736;13.926;2023-04-07T09:59:01;97436.81;;;13.18;76.11
52983;BME280;48698;45.736;13.926;2023-04-07T10:04:05;97494.72;;;13.42;77.10
52983;BME280;48698;45.736;13.926;2023-04-07T10:09:09;97390.75;;;12.87;74.79
52983;BME280;48698;45.736;13.926;2023-04-07T10:14:26;97488.78;;;14.82;71.50
52983;BME280;48698;45.736;13.926;2023-04-07T10:19:31;97478.94;;;14.06;67.53
52983;BME280;48698;45.736;13.926;2023-04-07T10:24:43;97475.19;;;14.73;72.78
52983;BME280;48698;45.736;13.926;2023-04-07T10:29:50;97471.31;;;15.38;68.49
52983;BME280;48698;45.736;13.926;2023-04-07T10:34:56;97403.97;;;14.72;65.13
52983;BME280;48698;45.736;13.926;2023-04-07T10:56:13;97471.13;;;16.13;58.54
52983;BME280;48698;45.736;13.926;2023-04-07T11:01:17;97462.91;;;14.83;63.79
52983;BME280;48698;45.736;13.926;2023-04-07T11:06:22;97450.47;;;14.94;60.88
52983;BME280;48698;45.736;13.926;2023-04-07T11:11:37;97369.53;;;13.66;61.97
52983;BME280;48698;45.736;13.926;2023-04-07T11:16:41;97456.25;;;13.86;62.42
52983;BME280;48698;45.736;13.926;2023-04-07T11:21:44;97451.81;;;13.60;62.16
52983;BME280;48698;45.736;13.926;2023-04-07T11:26:48;97447.06;;;13.77;63.55
52983;BME280;48698;45.736;13.926;2023-04-07T11:31:51;97411.16;;;14.08;62.71
52983;BME280;48698;45.736;13.926;2023-04-07T11:36:54;97408.88;;;13.89;63.13
52983;BME280;48698;45.736;13.926;2023-04-07T11:42:01;97192.94;;;12.30;60.64
52983;BME280;48698;45.736;13.926;2023-04-07T11:47:04;97434.41;;;14.19;60.13
52983;BME280;48698;45.736;13.926;2023-04-07T11:52:13;97415.38;;;13.85;63.95
52983;BME280;48698;45.736;13.926;2023-04-07T11:57:27;97423.72;;;13.93;59.42
52983;BME280;48698;45.736;13.926;2023-04-07T12:02:34;97396.06;;;13.02;59.91
52983;BME280;48698;45.736;13.926;2023-04-07T12:07:38;97208.78;;;12.46;64.19
52983;BME280;48698;45.736;13.926;2023-04-07T12:12:44;97341.97;;;12.73;59.48
52983;BME280;48698;45.736;13.926;2023-04-07T12:17:47;97447.94;;;13.24;60.66
52983;BME280;48698;45.736;13.926;2023-04-07T12:22:51;97446.84;;;12.58;57.49
52983;BME280;48698;45.736;13.926;2023-04-07T12:27:54;97360.03;;;12.13;56.18
52983;BME280;48698;45.736;13.926;2023-04-07T12:32:57;97294.47;;;12.79;57.46
52983;BME280;48698;45.736;13.926;2023-04-07T12:37:59;97412.31;;;13.91;59.93
52983;BME280;48698;45.736;13.926;2023-04-07T12:43:03;97384.91;;;13.36;55.78
52983;BME280;48698;45.736;13.926;2023-04-07T12:48:06;97211.78;;;13.20;54.35
52983;BME280;48698;45.736;13.926;2023-04-07T12:53:09;97370.47;;;14.05;56.09
52983;BME280;48698;45.736;13.926;2023-04-07T12:58:12;97314.00;;;13.46;56.81
52983;BME280;48698;45.736;13.926;2023-04-07T13:03:16;97329.63;;;13.52;51.61
52983;BME280;48698;45.736;13.926;2023-04-07T13:08:19;97392.00;;;13.89;53.12
52983;BME280;48698;45.736;13.926;2023-04-07T13:13:23;97400.13;;;14.00;52.19
52983;BME280;48698;45.736;13.926;2023-04-07T13:18:26;97342.97;;;13.77;49.88
52983;BME280;48698;45.736;13.926;2023-04-07T13:23:39;97397.31;;;13.76;49.52
52983;BME280;48698;45.736;13.926;2023-04-07T13:28:44;97181.19;;;12.86;48.42
52983;BME280;48698;45.736;13.926;2023-04-07T13:33:47;97393.06;;;13.86;48.07
52983;BME280;48698;45.736;13.926;2023-04-07T13:38:51;97340.88;;;13.43;47.05
52983;BME280;48698;45.736;13.926;2023-04-07T13:43:53;97281.69;;;13.38;51.26
52983;BME280;48698;45.736;13.926;2023-04-07T13:48:56;97339.75;;;13.60;48.49
52983;BME280;48698;45.736;13.926;2023-04-07T13:54:00;97326.72;;;12.89;49.78
52983;BME280;48698;45.736;13.926;2023-04-07T13:59:04;97044.41;;;11.27;47.91
52983;BME280;48698;45.736;13.926;2023-04-07T14:04:08;97390.81;;;13.14;46.69
52983;BME280;48698;45.736;13.926;2023-04-07T14:09:14;97298.34;;;12.47;46.91
52983;BME280;48698;45.736;13.926;2023-04-07T14:14:17;97287.31;;;12.80;45.59
52983;BME280;48698;45.736;13.926;2023-04-07T14:19:21;97387.81;;;12.92;46.60
52983;BME280;48698;45.736;13.926;2023-04-07T14:24:26;97350.56;;;12.64;47.14
52983;BME280;48698;45.736;13.926;2023-04-07T14:29:29;97308.50;;;11.85;47.29
52983;BME280;48698;45.736;13.926;2023-04-07T14:34:32;97281.03;;;11.85;47.55
52983;BME280;48698;45.736;13.926;2023-04-07T14:39:44;97219.50;;;11.33;48.40
52983;BME280;48698;45.736;13.926;2023-04-07T14:45:03;97032.41;;;10.21;46.11
52983;BME280;48698;45.736;13.926;2023-04-07T14:50:06;97349.56;;;11.96;47.46
52983;BME280;48698;45.736;13.926;2023-04-07T14:55:10;97315.03;;;11.80;47.01
52983;BME280;48698;45.736;13.926;2023-04-07T15:00:13;97276.78;;;11.09;47.63
52983;BME280;48698;45.736;13.926;2023-04-07T15:05:16;97352.97;;;12.12;50.92
52983;BME280;48698;45.736;13.926;2023-04-07T15:10:19;97306.38;;;11.90;48.80
52983;BME280;48698;45.736;13.926;2023-04-07T15:15:31;97356.47;;;12.26;48.56
52983;BME280;48698;45.736;13.926;2023-04-07T15:20:35;97356.09;;;12.47;47.84
52983;BME280;48698;45.736;13.926;2023-04-07T15:25:38;97086.16;;;10.24;48.08
52983;BME280;48698;45.736;13.926;2023-04-07T15:30:42;97350.31;;;12.12;47.40
52983;BME280;48698;45.736;13.926;2023-04-07T15:35:46;97379.31;;;12.16;51.13
52983;BME280;48698;45.736;13.926;2023-04-07T15:40:48;97253.28;;;11.17;47.70
52983;BME280;48698;45.736;13.926;2023-04-07T15:45:54;97309.25;;;11.87;50.43
52983;BME280;48698;45.736;13.926;2023-04-07T15:50:57;97295.47;;;11.81;51.54
52983;BME280;48698;45.736;13.926;2023-04-07T15:56:00;97112.09;;;10.79;48.95
52983;BME280;48698;45.736;13.926;2023-04-07T16:01:03;97100.59;;;10.78;51.49
52983;BME280;48698;45.736;13.926;2023-04-07T16:06:06;97320.94;;;11.99;48.52
52983;BME280;48698;45.736;13.926;2023-04-07T16:11:09;97229.41;;;11.73;51.48
52983;BME280;48698;45.736;13.926;2023-04-07T16:16:14;97369.88;;;12.67;50.58
52983;BME280;48698;45.736;13.926;2023-04-07T16:21:17;97260.94;;;11.65;49.62
52983;BME280;48698;45.736;13.926;2023-04-07T16:26:19;97261.03;;;11.50;51.10
52983;BME280;48698;45.736;13.926;2023-04-07T16:31:23;97369.91;;;12.25;51.99
52983;BME280;48698;45.736;13.926;2023-04-07T16:36:25;97250.44;;;11.34;51.11
52983;BME280;48698;45.736;13.926;2023-04-07T16:41:28;97116.94;;;10.43;51.18
52983;BME280;48698;45.736;13.926;2023-04-07T16:46:31;97136.94;;;10.18;51.54
52983;BME280;48698;45.736;13.926;2023-04-07T16:51:35;97233.00;;;10.70;50.83
52983;BME280;48698;45.736;13.926;2023-04-07T16:56:48;97379.28;;;11.58;51.49
52983;BME280;48698;45.736;13.926;2023-04-07T17:02:11;97292.34;;;11.15;52.07
52983;BME280;48698;45.736;13.926;2023-04-07T17:07:15;97276.00;;;10.61;51.81
52983;BME280;48698;45.736;13.926;2023-04-07T17:12:18;97360.97;;;10.93;61.35
52983;BME280;48698;45.736;13.926;2023-04-07T17:17:21;97338.81;;;10.47;63.11
52983;BME280;48698;45.736;13.926;2023-04-07T17:22:24;97330.56;;;10.35;62.42
52983;BME280;48698;45.736;13.926;2023-04-07T17:27:27;97265.84;;;8.90;66.09
52983;BME280;48698;45.736;13.926;2023-04-07T17:32:30;97371.97;;;8.68;78.90
52983;BME280;48698;45.736;13.926;2023-04-07T17:37:33;97419.59;;;8.10;85.34
52983;BME280;48698;45.736;13.926;2023-04-07T17:42:36;97324.06;;;7.20;85.88
52983;BME280;48698;45.736;13.926;2023-04-07T17:47:43;97257.66;;;6.25;93.23
52983;BME280;48698;45.736;13.926;2023-04-07T17:52:47;97428.66;;;7.24;100.00
52983;BME280;48698;45.736;13.926;2023-04-07T17:57:51;97122.53;;;5.33;100.00
52983;BME280;48698;45.736;13.926;2023-04-07T18:02:54;97302.66;;;5.99;100.00
52983;BME280;48698;45.736;13.926;2023-04-07T18:07:57;97399.06;;;5.56;100.00
52983;BME280;48698;45.736;13.926;2023-04-07T18:13:01;97450.81;;;5.82;100.00
52983;BME280;48698;45.736;13.926;2023-04-07T18:18:06;97446.94;;;6.17;100.00
52983;BME280;48698;45.736;13.926;2023-04-07T18:23:09;97470.00;;;6.35;100.00
52983;BME280;48698;45.736;13.926;2023-04-07T18:28:12;97336.44;;;4.36;100.00
52983;BME280;48698;45.736;13.926;2023-04-07T18:33:18;97184.56;;;3.07;100.00
52983;BME280;48698;45.736;13.926;2023-04-07T18:38:21;97305.28;;;3.95;100.00
52983;BME280;48698;45.736;13.926;2023-04-07T18:43:24;97470.63;;;5.69;100.00
52983;BME280;48698;45.736;13.926;2023-04-07T18:48:28;97374.56;;;4.77;100.00
52983;BME280;48698;45.736;13.926;2023-04-07T18:53:34;97153.41;;;3.53;100.00
52983;BME280;48698;45.736;13.926;2023-04-07T18:58:37;97231.34;;;3.81;100.00
52983;BME280;48698;45.736;13.926;2023-04-07T19:03:46;97484.16;;;5.32;100.00
52983;BME280;48698;45.736;13.926;2023-04-07T19:08:49;97493.03;;;5.02;100.00
52983;BME280;48698;45.736;13.926;2023-04-07T19:13:52;97237.09;;;3.04;100.00
52983;BME280;48698;45.736;13.926;2023-04-07T19:18:55;97530.88;;;4.98;100.00
52983;BME280;48698;45.736;13.926;2023-04-07T19:23:58;97315.69;;;4.27;100.00
52983;BME280;48698;45.736;13.926;2023-04-07T19:29:01;97357.53;;;4.05;100.00
52983;BME280;48698;45.736;13.926;2023-04-07T19:34:07;97434.88;;;3.97;100.00
52983;BME280;48698;45.736;13.926;2023-04-07T19:39:09;97466.41;;;3.97;100.00
52983;BME280;48698;45.736;13.926;2023-04-07T19:44:13;97448.22;;;4.20;100.00
52983;BME280;48698;45.736;13.926;2023-04-07T19:49:20;97491.19;;;3.54;100.00
52983;BME280;48698;45.736;13.926;2023-04-07T19:54:23;97327.53;;;2.55;100.00
52983;BME280;48698;45.736;13.926;2023-04-07T19:59:26;97528.53;;;3.98;100.00
52983;BME280;48698;45.736;13.926;2023-04-07T20:04:29;97406.78;;;3.02;100.00
52983;BME280;48698;45.736;13.926;2023-04-07T20:09:32;97485.28;;;3.11;100.00
52983;BME280;48698;45.736;13.926;2023-04-07T20:14:37;97543.22;;;3.73;100.00
52983;BME280;48698;45.736;13.926;2023-04-07T20:19:40;97553.38;;;3.17;100.00
52983;BME280;48698;45.736;13.926;2023-04-07T20:24:43;97425.81;;;2.38;100.00
52983;BME280;48698;45.736;13.926;2023-04-07T20:29:45;97465.44;;;2.99;100.00
52983;BME280;48698;45.736;13.926;2023-04-07T20:34:49;97570.69;;;3.59;100.00
52983;BME280;48698;45.736;13.926;2023-04-07T20:39:55;97366.19;;;2.83;100.00
52983;BME280;48698;45.736;13.926;2023-04-07T20:44:58;97289.13;;;2.54;100.00
52983;BME280;48698;45.736;13.926;2023-04-07T20:50:05;97550.28;;;3.71;100.00
52983;BME280;48698;45.736;13.926;2023-04-07T20:55:08;97380.06;;;2.88;100.00
52983;BME280;48698;45.736;13.926;2023-04-07T21:00:12;97405.66;;;2.78;100.00
52983;BME280;48698;45.736;13.926;2023-04-07T21:05:15;97482.97;;;2.21;100.00
52983;BME280;48698;45.736;13.926;2023-04-07T21:10:19;97573.84;;;3.38;100.00
52983;BME280;48698;45.736;13.926;2023-04-07T21:15:22;97400.44;;;2.77;100.00
52983;BME280;48698;45.736;13.926;2023-04-07T21:20:25;97441.81;;;3.01;100.00
52983;BME280;48698;45.736;13.926;2023-04-07T21:25:29;97219.34;;;1.80;100.00
52983;BME280;48698;45.736;13.926;2023-04-07T21:30:32;97538.91;;;3.36;100.00
52983;BME280;48698;45.736;13.926;2023-04-07T21:35:34;97377.50;;;2.11;100.00
52983;BME280;48698;45.736;13.926;2023-04-07T21:40:38;97320.91;;;0.25;100.00
52983;BME280;48698;45.736;13.926;2023-04-07T21:45:41;97458.94;;;2.00;100.00
52983;BME280;48698;45.736;13.926;2023-04-07T21:50:44;97303.28;;;0.86;100.00
52983;BME280;48698;45.736;13.926;2023-04-07T21:55:46;97428.63;;;1.44;100.00
52983;BME280;48698;45.736;13.926;2023-04-07T22:00:51;97538.66;;;2.32;100.00
52983;BME280;48698;45.736;13.926;2023-04-07T22:05:58;97388.03;;;1.24;100.00
52983;BME280;48698;45.736;13.926;2023-04-07T22:11:21;97510.03;;;2.21;100.00
52983;BME280;48698;45.736;13.926;2023-04-07T22:16:24;97264.16;;;0.34;100.00
52983;BME280;48698;45.736;13.926;2023-04-07T22:21:27;97376.69;;;1.25;100.00
52983;BME280;48698;45.736;13.926;2023-04-07T22:26:32;97442.09;;;1.23;100.00
52983;BME280;48698;45.736;13.926;2023-04-07T22:31:44;97315.88;;;0.65;100.00
52983;BME280;48698;45.736;13.926;2023-04-07T22:36:47;97416.69;;;1.30;100.00
52983;BME280;48698;45.736;13.926;2023-04-07T22:41:50;97566.00;;;2.17;100.00
52983;BME280;48698;45.736;13.926;2023-04-07T22:46:54;97610.97;;;1.94;100.00
52983;BME280;48698;45.736;13.926;2023-04-07T22:51:57;97608.59;;;2.27;100.00
52983;BME280;48698;45.736;13.926;2023-04-07T22:57:00;97511.03;;;1.70;100.00
52983;BME280;48698;45.736;13.926;2023-04-07T23:02:03;97533.59;;;1.77;100.00
52983;BME280;48698;45.736;13.926;2023-04-07T23:07:06;97545.06;;;1.70;100.00
52983;BME280;48698;45.736;13.926;2023-04-07T23:12:09;97602.03;;;2.04;100.00
52983;BME280;48698;45.736;13.926;2023-04-07T23:17:12;97348.34;;;0.53;100.00
52983;BME280;48698;45.736;13.926;2023-04-07T23:22:14;97489.03;;;1.32;100.00
52983;BME280;48698;45.736;13.926;2023-04-07T23:27:17;97406.06;;;0.90;100.00
52983;BME280;48698;45.736;13.926;2023-04-07T23:32:22;97365.22;;;0.31;100.00
52983;BME280;48698;45.736;13.926;2023-04-07T23:37:31;97484.00;;;1.20;100.00
52983;BME280;48698;45.736;13.926;2023-04-07T23:42:34;97491.44;;;1.43;100.00
52983;BME280;48698;45.736;13.926;2023-04-07T23:47:38;97551.28;;;1.63;100.00
52983;BME280;48698;45.736;13.926;2023-04-07T23:52:40;97335.75;;;0.21;100.00
52983;BME280;48698;45.736;13.926;2023-04-07T23:57:43;97380.78;;;0.38;100.00
